createdAt,value
2018-03-16T00:00:16.869Z,53.97
2018-03-16T00:01:23.331Z,53.00
2018-03-16T00:02:26.810Z,57.87
2018-03-16T00:03:30.987Z,54.53
2018-03-16T00:04:40.850Z,55.57
2018-03-16T00:05:46.897Z,53.70
2018-03-16T00:06:53.981Z,51.63
2018-03-16T00:07:58.223Z,58.60
2018-03-16T00:09:02.468Z,58.03
2018-03-16T00:10:15.949Z,53.63
2018-03-16T00:11:22.587Z,52.60
2018-03-16T00:12:26.783Z,53.40
2018-03-16T00:13:30.996Z,55.00
2018-03-16T00:14:40.859Z,59.03
2018-03-16T00:15:47.654Z,60.93
2018-03-16T00:16:53.917Z,67.07
2018-03-16T00:17:58.128Z,55.30
2018-03-16T00:19:02.309Z,56.33
2018-03-16T00:20:12.091Z,64.13
2018-03-16T00:21:19.401Z,56.40
2018-03-16T00:22:42.205Z,63.73
2018-03-16T00:23:51.812Z,49.90
2018-03-16T00:24:56.013Z,68.37
2018-03-16T00:26:00.175Z,65.77
2018-03-16T00:27:08.260Z,61.27
2018-03-16T00:28:14.256Z,59.00
2018-03-16T00:29:23.536Z,55.83
2018-03-16T00:30:27.763Z,54.67
2018-03-16T00:31:31.953Z,59.27
2018-03-16T00:32:40.469Z,61.73
2018-03-16T00:33:47.006Z,60.53
2018-03-16T00:34:53.453Z,63.60
2018-03-16T00:35:57.656Z,68.27
2018-03-16T00:37:01.861Z,69.97
2018-03-16T00:38:11.554Z,58.93
2018-03-16T00:39:20.022Z,66.87
2018-03-16T00:40:25.264Z,60.40
2018-03-16T00:41:30.194Z,58.10
2018-03-16T00:42:36.857Z,68.03
2018-03-16T00:43:44.060Z,64.73
2018-03-16T00:44:52.103Z,60.73
2018-03-16T00:45:56.490Z,66.30
2018-03-16T00:47:00.674Z,63.93
2018-03-16T00:48:07.843Z,65.17
2018-03-16T00:49:15.807Z,67.03
2018-03-16T00:50:22.212Z,71.07
2018-03-16T00:51:26.416Z,70.67
2018-03-16T00:52:31.366Z,71.07
2018-03-16T00:53:42.279Z,63.00
2018-03-16T00:54:50.677Z,65.80
2018-03-16T00:55:55.066Z,57.40
2018-03-16T00:56:59.231Z,60.37
2018-03-16T00:58:10.101Z,63.43
2018-03-16T00:59:22.118Z,67.07
2018-03-16T01:00:26.334Z,67.13
2018-03-16T01:01:30.499Z,75.07
2018-03-16T01:02:36.981Z,73.00
2018-03-16T01:03:44.004Z,65.23
2018-03-16T01:04:50.671Z,73.83
2018-03-16T01:05:55.093Z,74.97
2018-03-16T01:06:59.274Z,70.60
2018-03-16T01:08:05.965Z,70.93
2018-03-16T01:09:15.935Z,71.90
2018-03-16T01:10:23.396Z,71.13
2018-03-16T01:11:27.633Z,67.83
2018-03-16T01:12:31.809Z,75.30
2018-03-16T01:13:40.446Z,71.63
2018-03-16T01:14:48.921Z,74.00
2018-03-16T01:15:54.136Z,74.30
2018-03-16T01:16:59.140Z,69.97
2018-03-16T01:18:03.391Z,71.37
2018-03-16T01:19:16.134Z,76.97
2018-03-16T01:20:22.985Z,72.73
2018-03-16T01:21:27.233Z,76.67
2018-03-16T01:22:31.446Z,66.93
2018-03-16T01:23:38.826Z,75.70
2018-03-16T01:24:47.122Z,81.60
2018-03-16T01:25:54.347Z,73.37
2018-03-16T01:26:58.507Z,72.03
2018-03-16T01:28:02.685Z,73.23
2018-03-16T01:29:12.801Z,61.20
2018-03-16T01:30:20.368Z,71.30
2018-03-16T01:31:24.539Z,79.43
2018-03-16T01:32:29.467Z,73.53
2018-03-16T01:33:36.839Z,73.53
2018-03-16T01:34:46.577Z,68.27
2018-03-16T01:35:52.610Z,73.70
2018-03-16T01:36:56.826Z,65.30
2018-03-16T01:38:02.519Z,78.33
2018-03-16T01:39:10.872Z,67.40
2018-03-16T01:40:17.462Z,77.70
2018-03-16T01:41:24.031Z,78.37
2018-03-16T01:42:28.989Z,71.57
2018-03-16T01:43:33.519Z,74.07
2018-03-16T01:44:50.221Z,72.37
2018-03-16T01:45:54.927Z,81.43
2018-03-16T01:46:59.242Z,86.90
2018-03-16T01:48:04.175Z,78.10
2018-03-16T01:49:13.760Z,78.57
2018-03-16T01:50:19.758Z,81.20
2018-03-16T01:51:24.079Z,75.17
2018-03-16T01:52:28.323Z,78.10
2018-03-16T01:53:32.532Z,83.07
2018-03-16T01:54:41.172Z,77.30
2018-03-16T01:55:49.111Z,77.13
2018-03-16T01:56:53.737Z,85.97
2018-03-16T01:57:57.947Z,74.30
2018-03-16T01:59:02.188Z,76.13
2018-03-16T02:00:10.317Z,81.30
2018-03-16T02:01:16.188Z,86.43
2018-03-16T02:02:21.984Z,77.90
2018-03-16T02:03:26.168Z,85.00
2018-03-16T02:04:30.415Z,82.57
2018-03-16T02:05:36.424Z,81.23
2018-03-16T02:06:43.418Z,76.43
2018-03-16T02:07:50.584Z,84.37
2018-03-16T02:08:54.759Z,84.43
2018-03-16T02:09:58.996Z,75.70
2018-03-16T02:11:06.492Z,84.90
2018-03-16T02:12:13.554Z,78.90
2018-03-16T02:13:20.469Z,90.27
2018-03-16T02:14:25.614Z,86.47
2018-03-16T02:15:29.864Z,81.03
2018-03-16T02:16:35.390Z,83.70
2018-03-16T02:17:43.915Z,75.83
2018-03-16T02:18:50.504Z,83.90
2018-03-16T02:19:55.048Z,90.53
2018-03-16T02:20:59.218Z,77.60
2018-03-16T02:22:07.201Z,84.43
2018-03-16T02:23:13.570Z,77.20
2018-03-16T02:24:20.850Z,77.90
2018-03-16T02:25:25.115Z,84.07
2018-03-16T02:26:30.044Z,86.30
2018-03-16T02:27:38.174Z,85.70
2018-03-16T02:28:48.777Z,91.47
2018-03-16T02:29:54.488Z,88.30
2018-03-16T02:30:58.663Z,95.80
2018-03-16T02:32:02.897Z,87.37
2018-03-16T02:33:13.381Z,84.87
2018-03-16T02:34:19.936Z,90.80
2018-03-16T02:35:24.533Z,85.33
2018-03-16T02:36:28.713Z,82.73
2018-03-16T02:37:32.916Z,91.60
2018-03-16T02:38:42.240Z,109.53
2018-03-16T02:39:49.868Z,91.77
2018-03-16T02:40:55.119Z,90.80
2018-03-16T02:41:59.344Z,84.97
2018-03-16T02:43:03.970Z,96.47
2018-03-16T02:44:12.712Z,84.90
2018-03-16T02:45:20.158Z,89.13
2018-03-16T02:46:24.583Z,87.90
2018-03-16T02:47:28.746Z,85.70
2018-03-16T02:48:32.930Z,114.00
2018-03-16T02:49:42.930Z,96.53
2018-03-16T02:50:49.271Z,93.50
2018-03-16T02:51:53.771Z,91.10
2018-03-16T02:52:57.946Z,97.00
2018-03-16T02:54:02.159Z,86.20
2018-03-16T02:55:08.920Z,89.67
2018-03-16T02:56:16.387Z,89.20
2018-03-16T02:57:22.433Z,98.20
2018-03-16T02:58:26.644Z,98.77
2018-03-16T02:59:30.818Z,96.73
2018-03-16T03:00:40.041Z,86.53
2018-03-16T03:01:47.640Z,89.93
2018-03-16T03:02:53.582Z,91.83
2018-03-16T03:03:58.529Z,86.47
2018-03-16T03:05:02.737Z,76.47
2018-03-16T03:06:12.699Z,94.80
2018-03-16T03:07:20.499Z,93.33
2018-03-16T03:08:25.304Z,89.03
2018-03-16T03:09:29.503Z,83.43
2018-03-16T03:10:34.566Z,98.27
2018-03-16T03:11:43.531Z,94.27
2018-03-16T03:12:49.919Z,87.40
2018-03-16T03:13:54.394Z,86.63
2018-03-16T03:14:58.559Z,81.67
2018-03-16T03:16:02.737Z,88.37
2018-03-16T03:17:12.395Z,83.13
2018-03-16T03:18:18.847Z,92.40
2018-03-16T03:19:24.510Z,93.87
2018-03-16T03:20:28.704Z,76.83
2018-03-16T03:21:33.821Z,79.07
2018-03-16T03:22:42.402Z,88.00
2018-03-16T03:23:49.500Z,84.87
2018-03-16T03:24:54.862Z,91.20
2018-03-16T03:25:59.852Z,85.43
2018-03-16T03:27:05.933Z,92.80
2018-03-16T03:28:14.868Z,92.20
2018-03-16T03:29:20.627Z,93.60
2018-03-16T03:30:25.801Z,93.97
2018-03-16T03:31:30.819Z,88.43
2018-03-16T03:32:37.855Z,89.90
2018-03-16T03:33:44.341Z,86.03
2018-03-16T03:34:50.070Z,93.67
2018-03-16T03:35:55.015Z,86.87
2018-03-16T03:36:59.225Z,97.60
2018-03-16T03:38:03.538Z,94.40
2018-03-16T03:39:13.539Z,95.57
2018-03-16T03:40:21.741Z,85.60
2018-03-16T03:41:25.921Z,85.87
2018-03-16T03:42:30.124Z,88.83
2018-03-16T03:43:37.848Z,95.80
2018-03-16T03:44:46.944Z,91.63
2018-03-16T03:45:52.148Z,87.67
2018-03-16T03:46:57.080Z,86.70
2018-03-16T03:48:02.046Z,93.10
2018-03-16T03:49:10.663Z,87.60
2018-03-16T03:50:18.543Z,87.40
2018-03-16T03:51:24.254Z,88.90
2018-03-16T03:52:29.214Z,90.63
2018-03-16T03:53:33.385Z,82.27
2018-03-16T03:54:42.829Z,88.87
2018-03-16T03:55:50.720Z,91.50
2018-03-16T03:56:55.054Z,91.83
2018-03-16T03:57:59.229Z,92.63
2018-03-16T03:59:03.462Z,91.33
2018-03-16T04:00:16.051Z,84.63
2018-03-16T04:01:22.285Z,79.20
2018-03-16T04:02:26.465Z,86.37
2018-03-16T04:03:30.635Z,90.10
2018-03-16T04:04:38.408Z,94.13
2018-03-16T04:05:48.237Z,89.10
2018-03-16T04:06:52.917Z,87.50
2018-03-16T04:07:57.138Z,91.30
2018-03-16T04:09:01.313Z,89.93
2018-03-16T04:10:10.724Z,93.40
2018-03-16T04:11:16.729Z,89.80
2018-03-16T04:12:23.562Z,96.40
2018-03-16T04:13:28.562Z,95.60
2018-03-16T04:14:32.731Z,89.93
2018-03-16T04:15:42.059Z,86.97
2018-03-16T04:16:48.372Z,97.30
2018-03-16T04:17:53.587Z,93.53
2018-03-16T04:18:57.746Z,94.20
2018-03-16T04:20:01.962Z,97.07
2018-03-16T04:21:10.363Z,92.77
2018-03-16T04:22:16.120Z,88.57
2018-03-16T04:23:22.410Z,102.60
2018-03-16T04:24:26.669Z,87.30
2018-03-16T04:25:30.907Z,82.30
2018-03-16T04:26:38.112Z,96.83
2018-03-16T04:27:46.658Z,91.70
2018-03-16T04:28:51.805Z,97.17
2018-03-16T04:29:56.015Z,90.40
2018-03-16T04:31:00.253Z,95.93
2018-03-16T04:32:10.352Z,102.03
2018-03-16T04:33:18.302Z,77.80
2018-03-16T04:34:22.988Z,87.43
2018-03-16T04:35:27.160Z,89.00
2018-03-16T04:36:31.347Z,85.43
2018-03-16T04:37:42.662Z,95.07
2018-03-16T04:38:51.656Z,91.27
2018-03-16T04:39:56.651Z,92.07
2018-03-16T04:41:00.828Z,90.07
2018-03-16T04:42:09.463Z,90.53
2018-03-16T04:43:17.765Z,98.13
2018-03-16T04:44:23.660Z,106.53
2018-03-16T04:45:28.671Z,102.07
2018-03-16T04:46:32.862Z,109.70
2018-03-16T04:47:42.313Z,93.03
2018-03-16T04:48:47.849Z,97.07
2018-03-16T04:49:53.234Z,97.80
2018-03-16T04:50:57.491Z,88.23
2018-03-16T04:52:01.711Z,98.20
2018-03-16T04:53:10.361Z,108.43
2018-03-16T04:54:19.547Z,94.53
2018-03-16T04:55:25.210Z,96.30
2018-03-16T04:56:29.426Z,93.43
2018-03-16T04:57:38.585Z,100.73
2018-03-16T04:58:45.817Z,93.03
2018-03-16T04:59:51.604Z,94.73
2018-03-16T05:00:55.826Z,102.87
2018-03-16T05:02:00.051Z,95.17
2018-03-16T05:03:07.390Z,92.07
2018-03-16T05:04:15.991Z,96.80
2018-03-16T05:05:21.844Z,90.57
2018-03-16T05:06:26.245Z,100.03
2018-03-16T05:07:30.631Z,103.00
2018-03-16T05:08:37.648Z,92.13
2018-03-16T05:09:45.495Z,99.83
2018-03-16T05:10:52.989Z,98.27
2018-03-16T05:11:57.215Z,93.10
2018-03-16T05:13:01.408Z,108.23
2018-03-16T05:14:08.636Z,90.27
2018-03-16T05:15:17.269Z,106.00
2018-03-16T05:16:23.582Z,88.50
2018-03-16T05:17:27.746Z,96.67
2018-03-16T05:18:31.943Z,102.65
2018-03-16T05:19:45.222Z,117.70
2018-03-16T05:20:52.495Z,107.53
2018-03-16T05:21:56.692Z,94.03
2018-03-16T05:23:00.874Z,113.13
2018-03-16T05:24:08.340Z,105.67
2018-03-16T05:25:15.988Z,100.43
2018-03-16T05:26:23.092Z,100.50
2018-03-16T05:27:27.318Z,99.40
2018-03-16T05:28:31.482Z,105.80
2018-03-16T05:29:39.122Z,99.63
2018-03-16T05:30:46.598Z,111.30
2018-03-16T05:31:52.762Z,114.00
2018-03-16T05:32:57.767Z,114.50
2018-03-16T05:34:01.959Z,109.00
2018-03-16T05:35:08.492Z,107.47
2018-03-16T05:36:16.430Z,119.70
2018-03-16T05:37:21.341Z,111.90
2018-03-16T05:38:25.531Z,117.10
2018-03-16T05:39:30.496Z,111.87
2018-03-16T05:40:36.853Z,114.70
2018-03-16T05:41:44.498Z,115.77
2018-03-16T05:42:50.513Z,112.43
2018-03-16T05:43:54.687Z,117.70
2018-03-16T05:44:58.859Z,124.43
2018-03-16T05:46:03.127Z,117.17
2018-03-16T05:47:14.351Z,124.00
2018-03-16T05:48:22.910Z,112.93
2018-03-16T05:49:27.118Z,117.33
2018-03-16T05:50:31.283Z,108.17
2018-03-16T05:51:41.280Z,125.57
2018-03-16T05:52:50.166Z,117.27
2018-03-16T05:53:54.523Z,103.50
2018-03-16T05:54:58.704Z,127.40
2018-03-16T05:56:12.226Z,128.73
2018-03-16T05:57:44.373Z,111.30
2018-03-16T05:59:03.654Z,133.77
2018-03-16T06:00:13.804Z,132.07
2018-03-16T06:01:21.366Z,124.27
2018-03-16T06:02:25.804Z,127.60
2018-03-16T06:03:30.011Z,130.50
2018-03-16T06:04:35.566Z,126.17
2018-03-16T06:05:43.697Z,122.37
2018-03-16T06:06:49.921Z,121.60
2018-03-16T06:07:54.531Z,125.60
2018-03-16T06:08:58.729Z,130.23
2018-03-16T06:10:02.959Z,122.20
2018-03-16T06:11:10.354Z,132.57
2018-03-16T06:12:16.751Z,124.97
2018-03-16T06:13:22.198Z,116.10
2018-03-16T06:14:27.173Z,128.30
2018-03-16T06:15:31.433Z,117.00
2018-03-16T06:16:38.562Z,118.00
2018-03-16T06:17:44.536Z,112.80
2018-03-16T06:18:50.648Z,122.63
2018-03-16T06:19:54.871Z,113.30
2018-03-16T06:20:59.142Z,127.77
2018-03-16T06:22:05.658Z,108.30
2018-03-16T06:23:14.593Z,112.35
2018-03-16T06:24:21.409Z,123.13
2018-03-16T06:25:25.698Z,112.03
2018-03-16T06:26:29.777Z,125.73
2018-03-16T06:27:34.920Z,131.90
2018-03-16T06:28:41.677Z,116.60
2018-03-16T06:29:48.475Z,120.20
2018-03-16T06:30:52.964Z,131.55
2018-03-16T06:31:57.217Z,121.87
2018-03-16T06:33:02.388Z,125.47
2018-03-16T06:34:08.375Z,121.68
2018-03-16T06:35:14.563Z,122.10
2018-03-16T06:36:20.198Z,115.93
2018-03-16T06:37:24.442Z,100.57
2018-03-16T06:38:28.643Z,115.50
2018-03-16T06:39:33.589Z,119.70
2018-03-16T06:40:40.959Z,126.30
2018-03-16T06:41:46.295Z,138.37
2018-03-16T06:42:50.547Z,123.40
2018-03-16T06:43:54.764Z,115.62
2018-03-16T06:44:59.035Z,124.87
2018-03-16T06:46:03.191Z,119.93
2018-03-16T06:47:09.912Z,122.47
2018-03-16T06:48:16.118Z,123.30
2018-03-16T06:49:20.641Z,120.70
2018-03-16T06:50:24.834Z,124.47
2018-03-16T06:51:29.057Z,138.62
2018-03-16T06:52:33.305Z,134.60
2018-03-16T06:53:39.480Z,112.97
2018-03-16T06:54:45.439Z,126.78
2018-03-16T06:55:49.761Z,101.35
2018-03-16T06:56:53.955Z,130.40
2018-03-16T06:57:58.169Z,134.10
2018-03-16T06:59:02.426Z,134.27
2018-03-16T07:00:09.946Z,122.80
2018-03-16T07:01:14.390Z,128.20
2018-03-16T07:02:21.764Z,134.87
2018-03-16T07:03:25.958Z,154.48
2018-03-16T07:04:30.979Z,117.10
2018-03-16T07:05:37.062Z,138.73
2018-03-16T07:06:43.402Z,129.32
2018-03-16T07:07:49.467Z,131.63
2018-03-16T07:08:53.699Z,133.02
2018-03-16T07:09:57.919Z,126.00
2018-03-16T07:11:02.133Z,132.03
2018-03-16T07:12:10.551Z,140.27
2018-03-16T07:13:16.130Z,133.05
2018-03-16T07:14:20.787Z,130.40
2018-03-16T07:15:39.265Z,132.10
2018-03-16T07:16:46.134Z,136.57
2018-03-16T07:17:51.040Z,129.12
2018-03-16T07:18:55.297Z,140.67
2018-03-16T07:19:59.492Z,125.53
2018-03-16T07:21:04.128Z,132.10
2018-03-16T07:22:08.457Z,134.05
2018-03-16T07:23:14.116Z,139.97
2018-03-16T07:24:19.188Z,134.80
2018-03-16T07:25:23.384Z,149.60
2018-03-16T07:26:27.599Z,131.85
2018-03-16T07:27:31.835Z,131.55
2018-03-16T07:28:38.992Z,116.70
2018-03-16T07:29:44.082Z,124.77
2018-03-16T07:30:51.018Z,143.27
2018-03-16T07:31:55.741Z,131.65
2018-03-16T07:33:00.881Z,128.40
2018-03-16T07:34:07.127Z,136.02
2018-03-16T07:35:12.205Z,120.57
2018-03-16T07:36:18.214Z,119.20
2018-03-16T07:37:22.469Z,138.30
2018-03-16T07:38:27.444Z,129.67
2018-03-16T07:39:31.644Z,131.37
2018-03-16T07:40:37.365Z,145.12
2018-03-16T07:41:42.489Z,124.77
2018-03-16T07:42:48.394Z,133.05
2018-03-16T07:43:52.589Z,143.77
2018-03-16T07:44:56.783Z,144.80
2018-03-16T07:46:03.589Z,143.33
2018-03-16T07:47:10.409Z,146.47
2018-03-16T07:48:18.106Z,152.73
2018-03-16T07:49:23.740Z,135.70
2018-03-16T07:50:27.965Z,153.23
2018-03-16T07:51:32.177Z,128.00
2018-03-16T07:52:41.454Z,129.82
2018-03-16T07:53:46.791Z,124.20
2018-03-16T07:54:51.938Z,149.45
2018-03-16T07:55:57.015Z,158.55
2018-03-16T07:57:01.210Z,128.43
2018-03-16T07:58:10.010Z,146.95
2018-03-16T07:59:15.791Z,161.12
2018-03-16T08:00:21.408Z,141.32
2018-03-16T08:01:26.018Z,155.10
2018-03-16T08:02:30.997Z,133.12
2018-03-16T08:03:39.763Z,136.43
2018-03-16T08:04:45.475Z,124.70
2018-03-16T08:05:52.165Z,128.80
2018-03-16T08:06:56.403Z,151.27
2018-03-16T08:08:00.627Z,136.97
2018-03-16T08:09:06.137Z,126.13
2018-03-16T08:10:11.970Z,126.77
2018-03-16T08:11:17.208Z,135.93
2018-03-16T08:12:22.016Z,141.97
2018-03-16T08:13:26.186Z,127.00
2018-03-16T08:14:31.170Z,138.47
2018-03-16T08:15:38.656Z,144.97
2018-03-16T08:16:45.917Z,139.52
2018-03-16T08:17:50.546Z,142.73
2018-03-16T08:18:54.920Z,139.67
2018-03-16T08:19:59.868Z,137.07
2018-03-16T08:21:04.724Z,142.32
2018-03-16T08:22:12.664Z,115.90
2018-03-16T08:23:18.250Z,157.07
2018-03-16T08:24:22.873Z,146.87
2018-03-16T08:25:27.207Z,138.10
2018-03-16T08:26:31.410Z,135.27
2018-03-16T08:27:37.988Z,134.37
2018-03-16T08:28:43.471Z,154.73
2018-03-16T08:29:50.568Z,155.30
2018-03-16T08:30:54.896Z,139.55
2018-03-16T08:31:59.074Z,140.60
2018-03-16T08:33:03.344Z,129.60
2018-03-16T08:34:10.574Z,155.37
2018-03-16T08:35:16.247Z,135.07
2018-03-16T08:36:21.580Z,127.40
2018-03-16T08:37:25.774Z,130.37
2018-03-16T08:38:29.975Z,117.13
2018-03-16T08:39:34.909Z,124.82
2018-03-16T08:40:40.970Z,131.65
2018-03-16T08:41:46.010Z,118.30
2018-03-16T08:42:51.609Z,117.47
2018-03-16T08:43:56.568Z,125.77
2018-03-16T08:45:00.815Z,116.53
2018-03-16T08:46:07.850Z,115.30
2018-03-16T08:47:14.244Z,113.50
2018-03-16T08:48:21.126Z,117.20
2018-03-16T08:49:25.726Z,110.00
2018-03-16T08:50:29.908Z,113.43
2018-03-16T08:51:38.276Z,107.37
2018-03-16T08:52:44.609Z,111.50
2018-03-16T08:53:50.603Z,111.20
2018-03-16T08:54:55.237Z,122.47
2018-03-16T08:55:59.447Z,134.68
2018-03-16T08:57:04.123Z,123.93
2018-03-16T08:58:10.129Z,110.95
2018-03-16T08:59:15.589Z,107.72
2018-03-16T09:00:21.831Z,109.07
2018-03-16T09:01:26.048Z,97.65
2018-03-16T09:02:30.269Z,105.47
2018-03-16T09:03:36.895Z,100.60
2018-03-16T09:04:42.874Z,103.85
2018-03-16T09:05:49.254Z,88.20
2018-03-16T09:06:54.595Z,89.25
2018-03-16T09:07:58.850Z,101.83
2018-03-16T09:09:03.055Z,88.60
2018-03-16T09:10:10.499Z,95.53
2018-03-16T09:11:15.659Z,100.35
2018-03-16T09:12:21.612Z,94.70
2018-03-16T09:13:25.828Z,105.72
2018-03-16T09:14:30.083Z,102.05
2018-03-16T09:15:37.237Z,89.45
2018-03-16T09:16:44.919Z,97.30
2018-03-16T09:17:51.405Z,93.97
2018-03-16T09:18:56.350Z,95.18
2018-03-16T09:20:00.574Z,94.20
2018-03-16T09:21:08.510Z,103.90
2018-03-16T09:22:14.650Z,82.82
2018-03-16T09:23:21.642Z,108.40
2018-03-16T09:24:25.901Z,97.75
2018-03-16T09:25:30.901Z,99.53
2018-03-16T09:26:38.459Z,89.40
2018-03-16T09:27:46.245Z,87.72
2018-03-16T09:28:53.054Z,87.18
2018-03-16T09:29:58.087Z,102.60
2018-03-16T09:31:02.278Z,83.80
2018-03-16T09:32:10.904Z,80.85
2018-03-16T09:33:17.106Z,87.88
2018-03-16T09:34:23.372Z,93.57
2018-03-16T09:35:27.643Z,97.45
2018-03-16T09:36:31.844Z,99.73
2018-03-16T09:37:38.291Z,81.07
2018-03-16T09:38:46.078Z,78.68
2018-03-16T09:39:51.779Z,90.47
2018-03-16T09:40:56.826Z,74.57
2018-03-16T09:42:01.022Z,82.73
2018-03-16T09:43:09.087Z,74.00
2018-03-16T09:44:16.741Z,91.43
2018-03-16T09:45:21.907Z,84.50
2018-03-16T09:46:26.269Z,80.60
2018-03-16T09:47:31.239Z,82.50
2018-03-16T09:48:37.952Z,95.87
2018-03-16T09:49:45.601Z,79.18
2018-03-16T09:50:51.747Z,74.22
2018-03-16T09:51:56.059Z,85.20
2018-03-16T09:53:00.244Z,79.33
2018-03-16T09:54:06.575Z,92.40
2018-03-16T09:55:29.489Z,80.22
2018-03-16T09:56:35.334Z,79.47
2018-03-16T09:57:43.331Z,82.10
2018-03-16T09:58:51.400Z,87.93
2018-03-16T09:59:56.548Z,86.90
2018-03-16T10:01:01.455Z,76.72
2018-03-16T10:02:08.840Z,87.43
2018-03-16T10:03:13.540Z,83.07
2018-03-16T10:04:21.638Z,91.77
2018-03-16T10:05:25.861Z,81.90
2018-03-16T10:06:30.061Z,80.07
2018-03-16T10:07:36.995Z,92.17
2018-03-16T10:08:44.425Z,88.30
2018-03-16T10:09:50.426Z,80.30
2018-03-16T10:10:54.685Z,78.25
2018-03-16T10:11:58.897Z,93.40
2018-03-16T10:13:03.157Z,82.45
2018-03-16T10:14:11.637Z,83.53
2018-03-16T10:15:18.924Z,70.63
2018-03-16T10:16:24.226Z,76.57
2018-03-16T10:17:28.462Z,75.78
2018-03-16T10:18:33.407Z,72.07
2018-03-16T10:19:44.596Z,74.35
2018-03-16T10:20:52.339Z,72.83
2018-03-16T10:21:56.769Z,70.62
2018-03-16T10:23:01.479Z,87.40
2018-03-16T10:24:12.192Z,75.17
2018-03-16T10:25:21.439Z,76.53
2018-03-16T10:26:25.638Z,74.97
2018-03-16T10:27:29.874Z,76.90
2018-03-16T10:28:35.283Z,80.27
2018-03-16T10:29:42.682Z,78.90
2018-03-16T10:30:50.116Z,71.07
2018-03-16T10:31:54.350Z,69.67
2018-03-16T10:32:59.383Z,67.97
2018-03-16T10:34:05.125Z,79.40
2018-03-16T10:35:15.350Z,74.27
2018-03-16T10:36:20.985Z,56.53
2018-03-16T10:37:25.220Z,73.50
2018-03-16T10:38:30.190Z,67.57
2018-03-16T10:39:35.927Z,75.10
2018-03-16T10:40:46.740Z,77.85
2018-03-16T10:41:53.135Z,65.63
2018-03-16T10:42:57.426Z,72.87
2018-03-16T10:44:01.590Z,78.60
2018-03-16T10:45:08.878Z,61.42
2018-03-16T10:46:15.541Z,70.47
2018-03-16T10:47:21.872Z,62.65
2018-03-16T10:48:27.177Z,73.47
2018-03-16T10:49:31.360Z,64.40
2018-03-16T10:50:40.063Z,61.50
2018-03-16T10:51:46.297Z,59.30
2018-03-16T10:52:52.448Z,73.55
2018-03-16T10:53:56.763Z,64.93
2018-03-16T10:55:01.705Z,79.87
2018-03-16T10:56:09.452Z,68.55
2018-03-16T10:57:15.475Z,76.07
2018-03-16T10:58:21.739Z,72.40
2018-03-16T10:59:26.822Z,67.90
2018-03-16T11:00:37.028Z,62.00
2018-03-16T11:01:49.739Z,68.93
2018-03-16T11:02:54.588Z,67.50
2018-03-16T11:04:13.154Z,69.90
2018-03-16T11:07:10.713Z,78.30
2018-03-16T11:08:21.242Z,76.27
2018-03-16T11:09:25.486Z,79.70
2018-03-16T11:10:29.674Z,79.17
2018-03-16T11:11:34.292Z,70.70
2018-03-16T11:12:41.274Z,70.57
2018-03-16T11:13:47.413Z,64.27
2018-03-16T11:14:51.608Z,64.47
2018-03-16T11:15:55.814Z,63.90
2018-03-16T11:17:00.056Z,63.00
2018-03-16T11:18:07.407Z,54.43
2018-03-16T11:19:13.187Z,60.37
2018-03-16T11:20:18.429Z,55.35
2018-03-16T11:21:22.625Z,59.17
2018-03-16T11:22:26.848Z,53.30
2018-03-16T11:23:31.101Z,57.43
2018-03-16T11:24:37.190Z,49.77
2018-03-16T11:25:43.236Z,45.87
2018-03-16T11:26:48.509Z,41.80
2018-03-16T11:27:52.799Z,40.90
2018-03-16T11:28:57.045Z,50.42
2018-03-16T11:30:01.266Z,42.28
2018-03-16T11:31:07.101Z,50.37
2018-03-16T11:32:12.167Z,47.17
2018-03-16T11:33:16.880Z,50.88
2018-03-16T11:34:21.128Z,49.65
2018-03-16T11:35:25.334Z,49.42
2018-03-16T11:36:29.520Z,49.92
2018-03-16T11:37:35.138Z,49.37
2018-03-16T11:38:40.939Z,54.83
2018-03-16T11:39:45.761Z,49.53
2018-03-16T11:40:50.056Z,44.27
2018-03-16T11:41:54.264Z,43.97
2018-03-16T11:42:58.475Z,48.25
2018-03-16T11:44:02.726Z,42.72
2018-03-16T11:45:09.264Z,47.87
2018-03-16T11:46:14.280Z,51.20
2018-03-16T11:47:18.979Z,51.33
2018-03-16T11:48:23.959Z,48.47
2018-03-16T11:49:28.215Z,53.40
2018-03-16T11:50:33.219Z,54.00
2018-03-16T11:51:39.688Z,52.53
2018-03-16T11:52:44.677Z,49.10
2018-03-16T11:53:50.358Z,48.55
2018-03-16T11:54:54.616Z,50.55
2018-03-16T11:55:59.918Z,55.25
2018-03-16T11:57:05.963Z,61.63
2018-03-16T11:58:12.434Z,47.97
2018-03-16T11:59:18.172Z,49.33
2018-03-16T12:00:22.431Z,47.00
2018-03-16T12:01:27.412Z,50.33
2018-03-16T12:03:44.120Z,40.72
2018-03-16T12:04:50.162Z,45.17
2018-03-16T12:05:54.406Z,49.27
2018-03-16T12:06:58.662Z,48.80
2018-03-16T12:08:02.951Z,46.17
2018-03-16T12:09:11.372Z,42.85
2018-03-16T12:10:18.318Z,45.90
2018-03-16T12:11:22.851Z,41.55
2018-03-16T12:12:27.079Z,49.83
2018-03-16T12:13:32.049Z,44.30
2018-03-16T12:14:40.587Z,45.38
2018-03-16T12:15:46.733Z,46.42
2018-03-16T12:16:52.432Z,48.00
2018-03-16T12:17:56.686Z,43.08
2018-03-16T12:19:00.883Z,33.78
2018-03-16T12:20:07.815Z,44.53
2018-03-16T12:21:14.249Z,42.38
2018-03-16T12:22:19.876Z,41.70
2018-03-16T12:23:24.124Z,44.92
2018-03-16T12:24:29.081Z,40.08
2018-03-16T12:25:33.280Z,47.03
2018-03-16T12:26:41.590Z,39.00
2018-03-16T12:27:46.734Z,40.63
2018-03-16T12:28:51.912Z,37.57
2018-03-16T12:29:56.264Z,40.85
2018-03-16T12:31:00.497Z,41.05
2018-03-16T12:32:07.495Z,49.53
2018-03-16T12:33:14.392Z,37.47
2018-03-16T12:34:21.108Z,42.13
2018-03-16T12:35:26.124Z,41.60
2018-03-16T12:36:30.350Z,37.90
2018-03-16T12:37:36.342Z,38.97
2018-03-16T12:38:42.476Z,39.90
2018-03-16T12:39:48.383Z,37.38
2018-03-16T12:40:53.473Z,37.88
2018-03-16T12:41:57.675Z,37.63
2018-03-16T12:43:01.870Z,35.80
2018-03-16T12:44:08.522Z,36.27
2018-03-16T12:45:13.797Z,40.63
2018-03-16T12:46:19.789Z,36.23
2018-03-16T12:47:24.095Z,36.78
2018-03-16T12:48:29.074Z,39.58
2018-03-16T12:49:33.608Z,35.70
2018-03-16T12:50:40.731Z,35.28
2018-03-16T12:51:45.974Z,34.95
2018-03-16T12:52:51.335Z,40.53
2018-03-16T12:53:55.564Z,39.73
2018-03-16T12:54:59.828Z,39.83
2018-03-16T12:56:05.455Z,33.33
2018-03-16T12:57:12.257Z,39.97
2018-03-16T12:58:18.566Z,33.53
2018-03-16T12:59:23.009Z,33.67
2018-03-16T13:00:28.001Z,32.80
2018-03-16T13:01:32.224Z,37.57
2018-03-16T13:02:38.515Z,38.88
2018-03-16T13:03:44.267Z,40.25
2018-03-16T13:04:49.295Z,39.40
2018-03-16T13:05:54.263Z,38.53
2018-03-16T13:06:58.454Z,37.97
2018-03-16T13:08:03.675Z,37.70
2018-03-16T13:09:10.700Z,35.65
2018-03-16T13:10:16.537Z,40.43
2018-03-16T13:11:20.915Z,35.38
2018-03-16T13:12:25.077Z,33.53
2018-03-16T13:13:29.306Z,33.45
2018-03-16T13:14:33.640Z,33.03
2018-03-16T13:15:40.837Z,35.50
2018-03-16T13:16:45.481Z,31.40
2018-03-16T13:17:50.573Z,39.97
2018-03-16T13:18:54.796Z,38.03
2018-03-16T13:19:59.822Z,31.30
2018-03-16T13:21:04.643Z,38.72
2018-03-16T13:22:10.384Z,34.72
2018-03-16T13:23:15.495Z,33.53
2018-03-16T13:24:19.934Z,31.83
2018-03-16T13:25:24.961Z,32.38
2018-03-16T13:26:29.976Z,36.30
2018-03-16T13:27:35.653Z,27.90
2018-03-16T13:28:43.162Z,37.50
2018-03-16T13:29:48.101Z,35.97
2018-03-16T13:30:52.724Z,31.27
2018-03-16T13:31:56.997Z,32.60
2018-03-16T13:33:02.007Z,27.80
2018-03-16T13:34:07.200Z,31.80
2018-03-16T13:35:13.738Z,32.10
2018-03-16T13:36:18.819Z,30.85
2018-03-16T13:37:23.101Z,35.28
2018-03-16T13:38:27.308Z,29.67
2018-03-16T13:39:31.552Z,30.70
2018-03-16T13:40:38.254Z,35.60
2018-03-16T13:41:43.718Z,31.67
2018-03-16T13:42:48.407Z,32.70
2018-03-16T13:43:53.454Z,31.52
2018-03-16T13:44:58.408Z,28.30
2018-03-16T13:46:02.632Z,29.65
2018-03-16T13:47:08.672Z,28.87
2018-03-16T13:48:13.959Z,28.13
2018-03-16T13:49:18.884Z,31.60
2018-03-16T13:50:23.111Z,24.08
2018-03-16T13:51:28.104Z,27.05
2018-03-16T13:52:32.334Z,31.02
2018-03-16T13:53:38.539Z,33.00
2018-03-16T13:54:43.603Z,34.92
2018-03-16T13:55:48.434Z,30.03
2018-03-16T13:56:52.653Z,31.95
2018-03-16T13:57:56.862Z,38.50
2018-03-16T13:59:01.088Z,35.28
2018-03-16T14:00:07.209Z,37.43
2018-03-16T14:01:14.273Z,31.33
2018-03-16T14:02:19.656Z,31.60
2018-03-16T14:03:24.627Z,32.60
2018-03-16T14:04:28.808Z,29.48